Time;durP1;ratioP1;P1;durP2;ratioP2;P2;SDS_P1;SDS_P2;PMS_P1;PMS_P2;Temp;Humidity;BMP_temperature;BMP_pressure;BME280_temperature;BME280_humidity;BME280_pressure;Samples;Min_cycle;Max_cycle;Signal;HPM_P1;HPM_P2
2023/12/28 00:00:27;;;;;;;5.97;3.40;;;9.20;99.90;;;;;;5074528;28;20067;-78
2023/12/28 00:02:53;;;;;;;6.72;3.30;;;9.20;99.90;;;;;;5058455;28;20507;-77
2023/12/28 00:05:19;;;;;;;5.95;2.78;;;9.20;99.90;;;;;;5056948;28;20053;-77
2023/12/28 00:07:44;;;;;;;7.25;3.45;;;9.30;99.90;;;;;;5057956;28;20530;-77
2023/12/28 00:10:10;;;;;;;6.07;3.30;;;9.20;99.90;;;;;;5074073;28;20044;-77
2023/12/28 00:12:36;;;;;;;5.90;3.30;;;9.20;99.90;;;;;;5058238;28;20078;-78
2023/12/28 00:15:02;;;;;;;7.15;3.08;;;9.30;99.90;;;;;;5057931;28;20082;-78
2023/12/28 00:17:27;;;;;;;8.77;3.63;;;9.30;99.90;;;;;;5074506;28;20045;-78
2023/12/28 00:19:54;;;;;;;5.60;3.08;;;9.30;99.90;;;;;;5058076;28;20526;-78
2023/12/28 00:22:20;;;;;;;8.57;3.58;;;9.30;99.90;;;;;;5074239;28;20048;-78
2023/12/28 00:24:45;;;;;;;5.25;3.67;;;9.30;99.90;;;;;;5074137;28;20047;-78
2023/12/28 00:27:11;;;;;;;4.70;3.10;;;9.30;99.90;;;;;;5057335;28;20102;-78
2023/12/28 00:29:38;;;;;;;6.45;3.25;;;9.30;99.90;;;;;;5057361;28;20418;-77
2023/12/28 00:32:05;;;;;;;5.63;3.30;;;9.30;99.90;;;;;;5074072;28;20052;-77
2023/12/28 00:34:31;;;;;;;8.30;3.10;;;9.30;99.90;;;;;;5057263;28;20045;-78
2023/12/28 00:36:57;;;;;;;6.90;3.83;;;9.30;99.90;;;;;;5074099;28;20131;-78
2023/12/28 00:39:22;;;;;;;8.65;3.63;;;9.30;99.90;;;;;;5057002;28;20040;-78
2023/12/28 00:41:48;;;;;;;9.63;3.40;;;9.30;99.90;;;;;;5073747;28;20106;-78
2023/12/28 00:44:14;;;;;;;5.38;3.85;;;9.30;99.90;;;;;;5073386;28;20098;-78
2023/12/28 00:46:39;;;;;;;7.38;3.85;;;9.30;99.90;;;;;;5073815;28;20044;-78
2023/12/28 00:49:05;;;;;;;4.65;2.80;;;9.30;99.90;;;;;;5073890;28;20044;-78
2023/12/28 00:51:31;;;;;;;6.05;3.05;;;9.30;99.90;;;;;;5073382;28;20059;-78
2023/12/28 00:53:56;;;;;;;3.60;2.47;;;9.20;99.90;;;;;;5073865;28;20045;-78
2023/12/28 00:56:22;;;;;;;7.47;3.33;;;9.30;99.90;;;;;;5073140;28;20126;-78
2023/12/28 00:58:48;;;;;;;9.65;3.55;;;9.20;99.90;;;;;;5073615;28;20383;-78
2023/12/28 01:01:14;;;;;;;8.27;3.25;;;9.20;99.90;;;;;;5056811;28;20048;-79
2023/12/28 01:03:39;;;;;;;10.50;3.33;;;9.20;99.90;;;;;;5073807;28;20131;-78
2023/12/28 01:06:06;;;;;;;8.70;3.65;;;9.30;99.90;;;;;;5057005;28;20124;-78
2023/12/28 01:08:33;;;;;;;10.00;3.25;;;9.30;99.90;;;;;;5057266;28;20060;-79
2023/12/28 01:11:00;;;;;;;6.45;3.35;;;9.30;99.90;;;;;;5056166;28;20048;-79
2023/12/28 01:13:26;;;;;;;6.80;3.00;;;9.20;99.90;;;;;;5073509;28;20052;-79
2023/12/28 01:15:51;;;;;;;10.02;3.50;;;9.30;99.90;;;;;;5073696;28;20052;-79
2023/12/28 01:18:17;;;;;;;8.52;3.03;;;9.30;99.90;;;;;;5057244;28;20048;-79
2023/12/28 01:20:43;;;;;;;7.65;3.00;;;9.30;99.90;;;;;;5073919;28;20040;-78
2023/12/28 01:23:08;;;;;;;8.45;3.20;;;9.30;99.90;;;;;;5073590;28;20098;-78
2023/12/28 01:25:35;;;;;;;8.20;3.20;;;9.30;99.90;;;;;;5073049;28;20044;-79
2023/12/28 01:28:01;;;;;;;8.70;3.08;;;9.30;99.90;;;;;;5056832;28;20048;-78
2023/12/28 01:30:27;;;;;;;10.57;3.65;;;9.30;99.90;;;;;;5073044;28;20052;-79
2023/12/28 01:32:53;;;;;;;10.32;3.00;;;9.30;99.90;;;;;;5039796;28;20479;-79
2023/12/28 01:35:19;;;;;;;7.88;3.25;;;9.30;99.90;;;;;;5073122;28;20041;-79
2023/12/28 01:37:45;;;;;;;14.55;3.70;;;9.20;99.90;;;;;;5073926;28;20079;-79
2023/12/28 01:40:11;;;;;;;10.43;3.42;;;9.30;99.90;;;;;;5056178;28;20056;-79
2023/12/28 01:42:37;;;;;;;8.95;3.20;;;9.20;99.90;;;;;;5072630;28;20377;-79
2023/12/28 01:45:03;;;;;;;9.82;3.42;;;9.20;99.90;;;;;;5072735;28;20130;-79
2023/12/28 01:47:29;;;;;;;11.10;3.00;;;9.20;99.90;;;;;;5072232;28;20049;-79
2023/12/28 01:49:56;;;;;;;8.80;3.53;;;9.10;99.90;;;;;;5072554;28;20056;-79
2023/12/28 01:52:22;;;;;;;13.25;3.75;;;9.20;99.90;;;;;;5072459;28;20099;-79
2023/12/28 01:54:48;;;;;;;11.27;3.40;;;9.10;99.90;;;;;;5072975;28;20075;-79
2023/12/28 01:57:15;;;;;;;13.77;4.07;;;9.20;99.90;;;;;;5072281;28;20048;-79
2023/12/28 01:59:41;;;;;;;9.82;3.28;;;9.10;99.90;;;;;;5072557;28;20067;-79
2023/12/28 02:02:07;;;;;;;10.02;3.88;;;9.10;99.90;;;;;;5056670;28;20099;-78
2023/12/28 02:04:33;;;;;;;11.73;3.75;;;9.10;99.90;;;;;;5073735;28;20080;-79
2023/12/28 02:07:00;;;;;;;12.98;3.38;;;9.10;99.90;;;;;;5056153;28;20052;-79
2023/12/28 02:09:26;;;;;;;14.48;3.70;;;9.10;99.90;;;;;;5072372;28;20064;-79
2023/12/28 02:11:53;;;;;;;15.60;3.75;;;9.10;99.90;;;;;;5072913;28;20040;-78
2023/12/28 02:14:20;;;;;;;8.25;3.00;;;9.10;99.90;;;;;;5055867;28;20060;-78
2023/12/28 02:17:05;;;;;;;11.82;3.10;;;9.20;99.90;;;;;;5072126;28;20174;-78
2023/12/28 02:19:51;;;;;;;10.07;2.90;;;9.20;99.90;;;;;;5072686;28;20507;-78
2023/12/28 02:22:17;;;;;;;12.38;3.85;;;9.20;99.90;;;;;;5072995;28;20052;-78
2023/12/28 02:25:01;;;;;;;14.60;4.10;;;9.10;99.90;;;;;;5073838;28;20059;-79
2023/12/28 02:27:27;;;;;;;10.65;3.33;;;9.20;99.90;;;;;;5072332;28;20412;-79
2023/12/28 02:29:55;;;;;;;7.85;2.65;;;9.20;99.90;;;;;;5072694;28;20093;-79
2023/12/28 02:32:31;;;;;;;9.90;3.20;;;9.20;99.90;;;;;;5073202;28;20044;-79
2023/12/28 02:35:05;;;;;;;11.38;3.20;;;9.20;99.90;;;;;;5073439;28;20478;-79
2023/12/28 02:37:32;;;;;;;10.43;3.15;;;9.20;99.90;;;;;;5073317;28;20119;-79
2023/12/28 02:39:58;;;;;;;8.38;3.40;;;9.20;99.90;;;;;;5072367;28;20401;-79
2023/12/28 02:42:23;;;;;;;13.73;3.55;;;9.20;99.90;;;;;;5072057;28;20056;-80
2023/12/28 02:44:50;;;;;;;9.60;2.70;;;9.20;99.90;;;;;;5072522;28;20590;-78
2023/12/28 02:47:16;;;;;;;8.75;3.30;;;9.20;99.90;;;;;;5073385;28;20425;-78
2023/12/28 02:49:42;;;;;;;9.70;3.53;;;9.20;99.90;;;;;;5072442;28;20049;-79
2023/12/28 02:52:07;;;;;;;9.90;3.13;;;9.20;99.90;;;;;;5071723;28;20146;-79
2023/12/28 02:54:33;;;;;;;9.02;3.10;;;9.20;99.90;;;;;;5055253;28;20623;-79
2023/12/28 02:56:58;;;;;;;8.50;3.70;;;9.30;99.90;;;;;;5038749;28;20434;-78
2023/12/28 02:59:24;;;;;;;9.68;3.20;;;9.30;99.90;;;;;;5055520;28;20378;-78
2023/12/28 03:01:50;;;;;;;10.02;3.17;;;9.30;99.90;;;;;;5054613;28;20604;-79
2023/12/28 03:04:15;;;;;;;14.70;3.60;;;9.30;99.90;;;;;;5071850;28;20118;-79
2023/12/28 03:06:41;;;;;;;10.45;3.00;;;9.30;99.90;;;;;;5055239;28;20049;-79
2023/12/28 03:09:07;;;;;;;10.70;3.67;;;9.40;99.90;;;;;;5072010;28;20426;-78
2023/12/28 03:11:33;;;;;;;10.68;3.15;;;9.40;99.90;;;;;;5055093;28;20547;-79
2023/12/28 03:13:59;;;;;;;13.90;3.10;;;9.50;99.90;;;;;;5055380;28;20048;-79
2023/12/28 03:16:25;;;;;;;11.70;2.83;;;9.50;99.90;;;;;;5055544;28;20091;-79
2023/12/28 03:18:50;;;;;;;10.10;3.50;;;9.50;99.90;;;;;;5037795;28;20122;-78
2023/12/28 03:21:16;;;;;;;12.18;3.30;;;9.60;99.90;;;;;;5071518;28;20055;-78
2023/12/28 03:23:42;;;;;;;11.52;3.10;;;9.60;99.90;;;;;;5055107;28;20145;-78
2023/12/28 03:26:08;;;;;;;10.55;3.13;;;9.60;99.90;;;;;;5057273;28;20407;-79
2023/12/28 03:28:33;;;;;;;15.90;3.47;;;9.60;99.90;;;;;;5072511;28;20102;-79
2023/12/28 03:31:03;;;;;;;10.43;2.70;;;9.60;99.90;;;;;;5071427;28;20043;-78
2023/12/28 03:33:28;;;;;;;9.43;3.13;;;9.70;99.90;;;;;;5073866;28;20058;-79
2023/12/28 03:35:54;;;;;;;8.90;2.50;;;9.70;99.90;;;;;;5075674;28;20119;-79
2023/12/28 03:38:20;;;;;;;11.52;2.92;;;9.70;99.90;;;;;;5075888;28;20174;-79
2023/12/28 03:40:49;;;;;;;13.32;3.25;;;9.80;99.90;;;;;;5057984;28;20063;-79
2023/12/28 03:43:15;;;;;;;7.68;2.67;;;9.80;99.90;;;;;;5059818;28;20152;-79
2023/12/28 03:45:41;;;;;;;9.23;2.85;;;9.80;99.90;;;;;;5075625;28;20438;-79
2023/12/28 03:48:06;;;;;;;11.90;3.45;;;9.90;99.90;;;;;;5059567;28;20391;-79
2023/12/28 03:50:32;;;;;;;15.00;4.30;;;9.80;99.90;;;;;;5077538;28;20468;-79
2023/12/28 03:52:58;;;;;;;15.32;4.57;;;9.90;99.90;;;;;;5042198;28;20040;-79
2023/12/28 03:55:24;;;;;;;14.82;4.85;;;9.90;99.90;;;;;;5059055;28;20056;-79
2023/12/28 03:57:51;;;;;;;11.85;3.80;;;9.90;99.90;;;;;;5075076;28;20056;-79
2023/12/28 04:00:17;;;;;;;13.73;3.42;;;9.90;99.90;;;;;;5074869;28;20060;-79
2023/12/28 04:02:42;;;;;;;11.80;3.08;;;9.90;99.90;;;;;;5075220;28;20484;-79
2023/12/28 04:05:08;;;;;;;8.32;2.85;;;9.90;99.90;;;;;;5075492;28;20456;-79
2023/12/28 04:07:34;;;;;;;7.97;2.42;;;9.90;99.90;;;;;;5077103;28;20056;-79
2023/12/28 04:09:59;;;;;;;7.68;2.17;;;9.90;99.90;;;;;;5058401;28;20620;-79
2023/12/28 04:12:25;;;;;;;10.52;3.65;;;9.90;99.90;;;;;;5075322;28;20047;-79
2023/12/28 04:14:51;;;;;;;8.10;2.90;;;10.00;99.90;;;;;;5058043;28;20040;-79
2023/12/28 04:17:17;;;;;;;9.95;2.65;;;10.00;99.90;;;;;;5058641;28;20058;-79
2023/12/28 04:19:42;;;;;;;9.50;3.20;;;10.00;99.90;;;;;;5058067;28;20051;-79
2023/12/28 04:22:08;;;;;;;7.10;3.08;;;10.00;99.90;;;;;;5075251;28;20127;-78
2023/12/28 04:24:34;;;;;;;13.30;2.70;;;10.00;99.90;;;;;;5057977;28;20041;-79
2023/12/28 04:26:59;;;;;;;10.75;2.78;;;10.00;99.90;;;;;;5074576;28;20048;-79
2023/12/28 04:29:25;;;;;;;9.45;3.55;;;10.10;99.90;;;;;;5058664;28;20426;-79
2023/12/28 04:31:51;;;;;;;11.10;2.90;;;10.10;99.90;;;;;;5074732;28;20075;-79
2023/12/28 04:34:16;;;;;;;14.23;2.85;;;10.10;99.90;;;;;;5074729;28;20048;-79
2023/12/28 04:36:43;;;;;;;9.02;2.80;;;10.10;99.90;;;;;;5074725;28;20087;-79
2023/12/28 04:39:09;;;;;;;11.35;2.90;;;10.10;99.90;;;;;;5075357;28;20052;-79
2023/12/28 04:41:34;;;;;;;12.05;2.78;;;10.10;99.90;;;;;;5075071;28;20053;-79
2023/12/28 04:44:00;;;;;;;17.00;3.47;;;10.10;99.90;;;;;;5073943;28;20067;-79
2023/12/28 04:46:26;;;;;;;16.65;2.78;;;10.10;99.90;;;;;;5075210;28;20082;-79
2023/12/28 04:48:51;;;;;;;15.48;3.08;;;10.10;99.90;;;;;;5057675;28;20045;-80
2023/12/28 04:51:17;;;;;;;12.20;3.40;;;10.20;99.90;;;;;;5059066;28;20059;-79
2023/12/28 04:53:43;;;;;;;11.50;2.95;;;10.20;99.90;;;;;;5042281;28;20163;-78
2023/12/28 04:56:08;;;;;;;13.65;3.63;;;10.20;99.90;;;;;;5074568;28;20380;-79
2023/12/28 04:58:34;;;;;;;9.07;2.67;;;10.30;99.90;;;;;;5075369;28;20045;-79
2023/12/28 05:01:01;;;;;;;10.05;2.40;;;10.20;99.90;;;;;;5074577;28;20080;-79
2023/12/28 05:03:27;;;;;;;7.50;2.20;;;10.30;99.90;;;;;;5075903;28;20407;-79
2023/12/28 05:05:53;;;;;;;12.93;2.95;;;10.30;99.90;;;;;;5074321;28;20044;-79
2023/12/28 05:08:18;;;;;;;12.48;2.95;;;10.30;99.90;;;;;;5075908;28;20052;-79
2023/12/28 05:10:44;;;;;;;16.08;3.85;;;10.30;99.90;;;;;;5073816;28;20044;-79
2023/12/28 05:13:10;;;;;;;12.98;3.10;;;10.30;99.90;;;;;;5073298;28;20053;-79
2023/12/28 05:15:35;;;;;;;15.70;2.92;;;10.30;99.90;;;;;;5057268;28;20052;-79
2023/12/28 05:18:01;;;;;;;14.05;3.13;;;10.30;99.90;;;;;;5073300;28;20044;-79
2023/12/28 05:20:27;;;;;;;15.63;2.72;;;10.40;99.90;;;;;;5073214;28;20111;-79
2023/12/28 05:22:53;;;;;;;12.32;2.80;;;10.30;99.90;;;;;;5073289;28;20048;-79
2023/12/28 05:25:18;;;;;;;11.95;3.65;;;10.30;99.90;;;;;;5057222;28;20048;-79
2023/12/28 05:27:44;;;;;;;10.07;2.97;;;10.30;99.90;;;;;;5073935;28;20361;-80
2023/12/28 05:30:10;;;;;;;14.38;3.53;;;10.30;99.90;;;;;;5073466;28;20051;-79
2023/12/28 05:32:36;;;;;;;15.27;3.25;;;10.30;99.90;;;;;;5075030;28;20505;-79
2023/12/28 05:35:03;;;;;;;15.00;3.30;;;10.20;99.90;;;;;;5074836;28;20131;-79
2023/12/28 05:37:29;;;;;;;14.82;3.03;;;10.30;99.90;;;;;;5073441;28;20048;-79
2023/12/28 05:39:54;;;;;;;11.82;2.97;;;10.30;99.90;;;;;;5072553;28;20056;-78
2023/12/28 05:42:20;;;;;;;11.93;2.90;;;10.30;99.90;;;;;;5056894;28;20139;-79
2023/12/28 05:44:46;;;;;;;11.95;2.88;;;10.30;99.90;;;;;;5074366;28;20051;-79
2023/12/28 05:47:12;;;;;;;14.55;3.05;;;10.30;99.90;;;;;;5056097;28;20088;-80
2023/12/28 05:49:37;;;;;;;16.30;3.13;;;10.30;99.90;;;;;;5057110;28;20060;-78
2023/12/28 05:52:04;;;;;;;13.85;3.45;;;10.30;99.90;;;;;;5072947;28;20047;-78
2023/12/28 05:54:30;;;;;;;16.35;3.83;;;10.40;99.90;;;;;;5056724;28;20052;-79
2023/12/28 05:56:55;;;;;;;11.93;2.45;;;10.40;99.90;;;;;;5072993;28;20055;-79
2023/12/28 05:59:22;;;;;;;15.77;3.13;;;10.40;99.90;;;;;;5072906;28;20056;-79
2023/12/28 06:01:48;;;;;;;15.38;3.83;;;10.40;99.90;;;;;;5056358;28;20056;-80
2023/12/28 06:04:13;;;;;;;15.45;3.25;;;10.40;99.90;;;;;;5072332;28;20044;-79
2023/12/28 06:06:39;;;;;;;13.68;3.05;;;10.30;99.90;;;;;;5072806;28;20036;-79
2023/12/28 06:09:05;;;;;;;14.07;3.45;;;10.30;99.90;;;;;;5055650;28;20140;-79
2023/12/28 06:11:31;;;;;;;9.73;2.63;;;10.30;99.90;;;;;;5072365;28;20593;-79
2023/12/28 06:13:57;;;;;;;15.68;3.10;;;10.30;99.90;;;;;;5072501;28;20549;-80
2023/12/28 06:16:22;;;;;;;13.02;3.42;;;10.30;99.90;;;;;;5072559;28;20391;-79
2023/12/28 06:18:48;;;;;;;16.27;3.35;;;10.30;99.90;;;;;;5073469;28;20483;-79
2023/12/28 06:21:14;;;;;;;14.32;3.13;;;10.30;99.90;;;;;;5071669;28;20044;-79
2023/12/28 06:23:40;;;;;;;14.77;2.90;;;10.30;99.90;;;;;;5072491;28;20055;-79
2023/12/28 06:26:06;;;;;;;12.40;2.55;;;10.30;99.90;;;;;;5072100;28;20048;-78
2023/12/28 06:28:32;;;;;;;20.48;3.72;;;10.30;99.90;;;;;;5072274;28;20109;-78
2023/12/28 06:31:00;;;;;;;15.05;3.22;;;10.30;99.90;;;;;;5071914;28;20128;-79
2023/12/28 06:33:28;;;;;;;14.77;2.88;;;10.40;99.90;;;;;;5073653;28;20061;-79
2023/12/28 06:35:53;;;;;;;12.90;2.92;;;10.40;99.90;;;;;;5056176;28;20048;-79
2023/12/28 06:38:19;;;;;;;16.45;3.53;;;10.40;99.90;;;;;;5056117;28;20075;-79
2023/12/28 06:40:45;;;;;;;18.42;3.88;;;10.40;99.90;;;;;;5071844;28;20060;-79
2023/12/28 06:43:10;;;;;;;11.40;2.60;;;10.40;99.90;;;;;;5055178;28;20110;-79
2023/12/28 06:45:36;;;;;;;11.73;3.13;;;10.40;99.90;;;;;;5072460;28;20529;-79
2023/12/28 06:48:02;;;;;;;15.15;3.88;;;10.40;99.90;;;;;;5072425;28;20041;-79
2023/12/28 06:50:27;;;;;;;21.33;4.03;;;10.40;99.90;;;;;;5072046;28;20056;-79
2023/12/28 06:52:53;;;;;;;16.42;4.18;;;10.40;99.90;;;;;;5072142;28;20135;-79
2023/12/28 06:55:18;;;;;;;15.68;2.88;;;10.40;99.90;;;;;;5071962;28;20087;-79
2023/12/28 06:57:44;;;;;;;19.85;3.85;;;10.50;99.90;;;;;;5055251;28;20048;-79
2023/12/28 07:00:10;;;;;;;16.15;3.65;;;10.40;99.90;;;;;;5071694;28;20198;-79
2023/12/28 07:02:36;;;;;;;13.45;2.78;;;10.50;99.90;;;;;;5071798;28;20582;-79
2023/12/28 07:05:03;;;;;;;16.55;3.15;;;10.50;99.90;;;;;;5072037;28;20088;-79
2023/12/28 07:07:29;;;;;;;11.02;2.75;;;10.50;99.90;;;;;;5055873;28;20052;-79
2023/12/28 07:09:55;;;;;;;17.02;3.50;;;10.60;99.90;;;;;;5076266;28;20051;-79
2023/12/28 07:12:21;;;;;;;16.50;3.67;;;10.50;99.90;;;;;;5059185;28;20110;-80
2023/12/28 07:14:47;;;;;;;15.13;3.88;;;10.50;99.90;;;;;;5059464;28;20134;-79
2023/12/28 07:17:17;;;;;;;14.52;3.60;;;10.60;99.90;;;;;;5075860;28;20056;-79
2023/12/28 07:19:43;;;;;;;25.05;3.72;;;10.60;99.90;;;;;;5075949;28;20052;-80
2023/12/28 07:22:08;;;;;;;16.00;3.42;;;10.60;99.90;;;;;;5075834;28;20076;-80
2023/12/28 07:24:34;;;;;;;17.20;3.55;;;10.60;99.90;;;;;;5075567;28;20529;-79
2023/12/28 07:27:00;;;;;;;13.20;3.47;;;10.60;99.90;;;;;;5075658;28;20056;-79
2023/12/28 07:29:25;;;;;;;15.38;3.28;;;10.60;99.90;;;;;;5075301;28;20476;-79
2023/12/28 07:31:51;;;;;;;17.02;3.35;;;10.60;99.90;;;;;;5058934;28;20059;-80
2023/12/28 07:34:17;;;;;;;10.70;3.30;;;10.60;99.90;;;;;;5058399;28;20052;-79
2023/12/28 07:36:43;;;;;;;15.50;3.38;;;10.60;99.90;;;;;;5059671;28;20056;-79
2023/12/28 07:39:10;;;;;;;14.30;3.20;;;10.60;99.90;;;;;;5077452;28;20066;-81
2023/12/28 07:41:36;;;;;;;11.05;3.00;;;10.60;99.90;;;;;;5075689;28;20060;-78
2023/12/28 07:44:02;;;;;;;15.30;3.47;;;10.50;99.90;;;;;;5075417;28;20052;-79
2023/12/28 07:46:27;;;;;;;20.42;4.60;;;10.60;99.90;;;;;;5074904;28;20059;-79
2023/12/28 07:48:53;;;;;;;19.60;3.95;;;10.60;99.90;;;;;;5058666;28;20051;-77
2023/12/28 07:51:19;;;;;;;17.08;3.45;;;10.60;99.90;;;;;;5074450;28;20057;-77
2023/12/28 07:53:44;;;;;;;24.08;4.25;;;10.60;99.90;;;;;;5041699;28;20087;-78
2023/12/28 07:56:11;;;;;;;27.73;4.35;;;10.60;99.90;;;;;;5076058;28;20063;-77
2023/12/28 07:58:39;;;;;;;22.13;4.90;;;10.60;99.90;;;;;;5074574;28;20051;-78
2023/12/28 08:01:10;;;;;;;19.73;3.63;;;10.60;99.90;;;;;;5076228;28;20049;-81
2023/12/28 08:03:35;;;;;;;15.85;4.80;;;10.60;99.90;;;;;;5075002;28;20679;-78
2023/12/28 08:06:01;;;;;;;28.95;5.07;;;10.60;99.90;;;;;;5077733;28;20093;-80
2023/12/28 08:08:26;;;;;;;14.82;3.28;;;10.60;99.90;;;;;;5075402;28;20048;-80
2023/12/28 08:10:52;;;;;;;21.60;4.00;;;10.70;99.90;;;;;;5075158;28;20449;-80
2023/12/28 08:13:18;;;;;;;19.38;4.13;;;10.70;99.90;;;;;;5058143;28;20060;-78
2023/12/28 08:15:46;;;;;;;21.55;4.18;;;10.70;99.90;;;;;;5074740;28;20131;-77
2023/12/28 08:18:12;;;;;;;15.35;4.18;;;10.70;99.90;;;;;;5074668;28;20144;-78
2023/12/28 08:20:38;;;;;;;22.55;4.60;;;10.70;99.90;;;;;;5072224;28;20055;-77
2023/12/28 08:23:03;;;;;;;27.13;4.80;;;10.80;99.90;;;;;;5074072;28;20041;-77
2023/12/28 08:25:29;;;;;;;22.27;3.58;;;10.80;99.90;;;;;;5057817;28;20102;-78
2023/12/28 08:27:55;;;;;;;22.33;4.45;;;10.80;99.90;;;;;;5074527;28;20048;-77
2023/12/28 08:30:21;;;;;;;19.48;4.15;;;10.80;99.90;;;;;;5074731;28;20059;-77
2023/12/28 08:32:47;;;;;;;28.70;5.38;;;10.80;99.90;;;;;;5057578;28;20037;-77
2023/12/28 08:35:12;;;;;;;24.95;4.80;;;10.80;99.90;;;;;;5057838;28;20041;-77
2023/12/28 08:37:38;;;;;;;21.35;5.05;;;10.90;99.90;;;;;;5073564;28;20127;-76
2023/12/28 08:40:04;;;;;;;28.67;5.25;;;10.90;99.90;;;;;;5073845;28;20107;-77
2023/12/28 08:42:30;;;;;;;31.77;5.95;;;10.90;99.90;;;;;;5072572;28;20437;-79
2023/12/28 08:44:56;;;;;;;17.75;4.70;;;11.00;99.90;;;;;;5072873;28;20131;-76
2023/12/28 08:47:22;;;;;;;28.60;5.28;;;11.00;99.90;;;;;;5056522;28;20131;-77
2023/12/28 08:49:47;;;;;;;27.38;5.18;;;11.00;99.90;;;;;;5073085;28;20048;-75
2023/12/28 08:52:13;;;;;;;26.58;5.35;;;11.00;99.90;;;;;;5072184;28;20044;-75
2023/12/28 08:54:40;;;;;;;25.55;5.32;;;11.00;99.90;;;;;;5073605;28;20106;-74
2023/12/28 08:57:06;;;;;;;31.38;6.20;;;11.00;99.90;;;;;;5073955;28;20410;-75
2023/12/28 08:59:36;;;;;;;25.67;4.28;;;11.00;99.90;;;;;;5072833;28;20075;-76
2023/12/28 09:02:02;;;;;;;21.70;3.75;;;11.00;99.90;;;;;;5075217;28;20052;-75
2023/12/28 09:04:28;;;;;;;22.63;4.57;;;11.00;99.90;;;;;;5073022;28;20254;-79
2023/12/28 09:06:53;;;;;;;20.45;4.80;;;11.00;99.90;;;;;;5058913;28;20052;-79
2023/12/28 09:09:19;;;;;;;23.65;4.50;;;11.10;99.90;;;;;;5074910;28;20056;-75
2023/12/28 09:11:45;;;;;;;28.67;5.25;;;11.00;99.90;;;;;;5073897;28;20044;-77
2023/12/28 09:14:10;;;;;;;27.08;4.47;;;11.00;99.90;;;;;;5073847;28;20094;-76
2023/12/28 09:16:36;;;;;;;22.52;4.30;;;11.00;99.90;;;;;;5075142;28;20103;-77
2023/12/28 09:19:02;;;;;;;22.20;5.00;;;11.10;99.90;;;;;;5057258;28;20044;-76
2023/12/28 09:21:27;;;;;;;20.45;4.80;;;11.00;99.90;;;;;;5075059;28;20449;-78
2023/12/28 09:23:53;;;;;;;25.98;5.75;;;11.10;99.90;;;;;;5074388;28;20508;-77
2023/12/28 09:26:19;;;;;;;18.55;3.88;;;11.10;99.90;;;;;;5041072;28;20075;-76
2023/12/28 09:28:44;;;;;;;28.35;5.82;;;11.10;99.90;;;;;;5040626;28;20134;-77
2023/12/28 09:31:11;;;;;;;29.48;5.85;;;11.10;99.90;;;;;;5073121;28;20041;-76
2023/12/28 09:33:37;;;;;;;19.45;4.05;;;11.10;99.90;;;;;;5074423;28;20052;-76
2023/12/28 09:36:06;;;;;;;21.73;4.00;;;11.10;99.90;;;;;;5057534;28;20131;-77
2023/12/28 09:38:32;;;;;;;19.48;4.22;;;11.20;99.90;;;;;;5056939;28;20484;-78
2023/12/28 09:41:04;;;;;;;15.77;3.03;;;11.20;99.90;;;;;;5075028;28;20099;-79
2023/12/28 09:44:01;;;;;;;22.27;4.72;;;11.20;99.90;;;;;;5074565;28;20049;-77
2023/12/28 09:46:27;;;;;;;22.02;3.83;;;11.20;99.90;;;;;;5059834;28;20056;-78
2023/12/28 09:48:56;;;;;;;27.58;4.97;;;11.20;99.90;;;;;;5073873;28;20445;-77
2023/12/28 09:51:21;;;;;;;22.45;4.60;;;11.20;99.90;;;;;;5074370;28;20052;-77
2023/12/28 09:53:47;;;;;;;20.25;4.30;;;11.20;99.90;;;;;;5073905;28;20071;-78
2023/12/28 09:56:16;;;;;;;27.48;5.07;;;11.20;99.90;;;;;;5057739;28;20497;-78
2023/12/28 09:58:44;;;;;;;20.40;4.47;;;11.10;99.90;;;;;;5074182;28;20044;-75
2023/12/28 10:01:10;;;;;;;24.38;4.57;;;11.10;99.90;;;;;;5057669;28;20100;-78
2023/12/28 10:03:36;;;;;;;18.88;3.95;;;11.10;99.90;;;;;;5073446;28;20108;-76
2023/12/28 10:06:02;;;;;;;23.80;5.25;;;11.10;99.90;;;;;;5073910;28;20071;-78
2023/12/28 10:08:27;;;;;;;27.17;4.82;;;11.10;99.90;;;;;;5057389;28;20475;-77
2023/12/28 10:10:54;;;;;;;22.08;4.53;;;11.10;99.90;;;;;;5072957;28;20044;-78
2023/12/28 10:13:24;;;;;;;22.05;4.70;;;11.10;99.90;;;;;;5039827;28;20133;-77
2023/12/28 10:15:50;;;;;;;24.65;4.70;;;11.10;99.90;;;;;;5074188;28;20147;-79
2023/12/28 10:18:19;;;;;;;23.13;4.50;;;11.10;99.90;;;;;;5056598;28;20505;-78
2023/12/28 10:20:51;;;;;;;21.08;5.10;;;11.10;99.90;;;;;;5073925;28;20349;-79
2023/12/28 10:23:21;;;;;;;23.85;5.35;;;11.10;99.90;;;;;;5075188;28;20152;-79
2023/12/28 10:25:49;;;;;;;20.92;4.63;;;11.10;99.90;;;;;;5056420;28;20090;-77
2023/12/28 10:28:18;;;;;;;22.25;5.03;;;11.10;99.90;;;;;;5074749;28;20448;-78
2023/12/28 10:30:44;;;;;;;23.33;5.03;;;11.10;99.90;;;;;;5056792;28;20044;-78
2023/12/28 10:33:10;;;;;;;21.65;4.32;;;11.20;99.90;;;;;;5056546;28;20091;-78
2023/12/28 10:35:35;;;;;;;21.73;4.45;;;11.20;99.90;;;;;;5073144;28;20067;-78
2023/12/28 10:38:04;;;;;;;17.65;3.80;;;11.20;99.90;;;;;;5056311;28;20064;-79
2023/12/28 10:40:32;;;;;;;17.13;4.38;;;11.20;99.90;;;;;;5072267;28;20518;-78
2023/12/28 10:43:01;;;;;;;27.15;4.90;;;11.20;99.90;;;;;;5072408;28;20048;-78
2023/12/28 10:45:29;;;;;;;15.13;3.28;;;11.20;99.90;;;;;;5056083;28;20492;-79
2023/12/28 10:48:07;;;;;;;20.83;4.82;;;11.20;99.90;;;;;;5072713;28;20139;-78
2023/12/28 10:50:52;;;;;;;27.17;5.47;;;11.20;99.90;;;;;;5074341;28;20430;-77
2023/12/28 10:53:54;;;;;;;18.73;3.97;;;11.20;99.90;;;;;;5074402;28;20049;-77
2023/12/28 10:57:08;;;;;;;19.65;4.55;;;11.20;99.90;;;;;;5072274;28;20048;-77
2023/12/28 10:59:54;;;;;;;23.83;4.35;;;11.20;99.90;;;;;;5011744;28;20541;-77
2023/12/28 11:02:24;;;;;;;21.98;4.10;;;11.30;99.90;;;;;;4995963;28;20046;-77
2023/12/28 11:04:53;;;;;;;21.88;4.95;;;11.20;99.90;;;;;;5056008;28;20052;-77
2023/12/28 11:07:20;;;;;;;20.48;3.67;;;11.30;99.90;;;;;;5074590;28;20128;-77
2023/12/28 11:09:47;;;;;;;23.88;4.53;;;11.20;99.90;;;;;;5073073;28;20113;-76
2023/12/28 11:12:13;;;;;;;23.58;5.47;;;11.20;99.90;;;;;;5073235;28;20064;-77
2023/12/28 11:14:40;;;;;;;20.52;4.45;;;11.20;99.90;;;;;;5038819;28;20049;-76
2023/12/28 11:17:06;;;;;;;27.25;4.95;;;11.20;99.90;;;;;;5072059;28;20064;-77
2023/12/28 11:19:36;;;;;;;21.17;3.92;;;11.10;99.90;;;;;;5072264;28;20048;-76
2023/12/28 11:22:03;;;;;;;18.25;4.65;;;11.20;99.90;;;;;;5072232;28;20055;-75
2023/12/28 11:24:30;;;;;;;19.67;4.55;;;11.20;99.90;;;;;;5072356;28;20127;-76
2023/12/28 11:26:56;;;;;;;18.65;4.00;;;11.20;99.90;;;;;;5072502;28;20048;-76
2023/12/28 11:29:26;;;;;;;26.92;6.05;;;11.20;99.90;;;;;;5072348;28;20416;-76
2023/12/28 11:31:56;;;;;;;21.70;4.65;;;11.20;99.90;;;;;;5072211;28;20114;-74
2023/12/28 11:34:30;;;;;;;19.83;5.38;;;11.20;99.90;;;;;;5072937;28;20048;-75
2023/12/28 11:36:58;;;;;;;21.90;4.65;;;11.20;99.90;;;;;;5088703;28;20049;-75
2023/12/28 11:39:33;;;;;;;27.15;4.00;;;11.20;99.90;;;;;;5072582;28;20053;-76
2023/12/28 11:42:05;;;;;;;26.77;4.68;;;11.20;99.90;;;;;;5073085;28;20056;-76
2023/12/28 11:44:37;;;;;;;16.30;3.85;;;11.30;99.90;;;;;;5073190;28;20513;-75
2023/12/28 11:47:20;;;;;;;12.90;3.42;;;11.30;99.90;;;;;;5054478;28;20052;-77
2023/12/28 11:49:47;;;;;;;25.35;4.78;;;11.30;99.90;;;;;;5072909;28;20139;-77
2023/12/28 11:52:23;;;;;;;16.48;3.85;;;11.20;99.90;;;;;;5074218;28;20049;-76
2023/12/28 11:54:49;;;;;;;26.65;5.40;;;11.20;99.90;;;;;;5059681;28;20057;-77
2023/12/28 11:57:16;;;;;;;24.58;3.92;;;11.20;99.90;;;;;;5077552;28;20056;-78
2023/12/28 11:59:41;;;;;;;22.00;4.38;;;11.10;99.90;;;;;;5077011;28;20047;-81
2023/12/28 12:02:08;;;;;;;20.02;4.50;;;11.10;99.90;;;;;;5058964;28;20052;-86
2023/12/28 12:04:34;;;;;;;16.77;4.40;;;11.20;99.90;;;;;;5059929;28;20045;-84
2023/12/28 12:07:04;;;;;;;24.48;4.72;;;11.10;99.90;;;;;;5075896;28;20044;-83
2023/12/28 12:09:34;;;;;;;22.67;4.15;;;11.20;99.90;;;;;;5076199;28;20060;-82
2023/12/28 12:12:03;;;;;;;16.17;4.28;;;11.10;99.90;;;;;;5075389;28;20484;-75
2023/12/28 12:14:30;;;;;;;20.63;5.00;;;11.20;99.90;;;;;;5075335;28;20041;-80
2023/12/28 12:16:56;;;;;;;19.63;4.13;;;11.20;99.90;;;;;;5076504;28;20064;-82
2023/12/28 12:19:23;;;;;;;28.77;4.25;;;11.20;99.90;;;;;;5075324;28;20048;-82
2023/12/28 12:21:49;;;;;;;27.95;5.35;;;11.20;99.90;;;;;;5076418;28;20555;-83
2023/12/28 12:24:18;;;;;;;27.85;4.70;;;11.10;99.90;;;;;;5075621;28;20446;-83
2023/12/28 12:26:45;;;;;;;21.70;4.88;;;11.10;99.90;;;;;;5075799;28;20127;-81
2023/12/28 12:29:10;;;;;;;27.10;5.82;;;11.00;99.90;;;;;;5076266;28;20068;-82
2023/12/28 12:31:38;;;;;;;28.73;4.95;;;11.00;99.90;;;;;;5059520;28;20055;-82
2023/12/28 12:34:04;;;;;;;20.30;4.10;;;11.00;99.90;;;;;;5058740;28;20395;-82
2023/12/28 12:36:29;;;;;;;29.95;5.65;;;11.00;99.90;;;;;;5075694;28;20087;-78
2023/12/28 12:38:56;;;;;;;21.20;4.43;;;11.00;99.90;;;;;;5060234;28;20037;-82
2023/12/28 12:41:23;;;;;;;21.85;4.45;;;11.00;99.90;;;;;;5078163;28;20064;-89